createdAt,value
2022-12-27T03:59:13.725Z,48.81
2022-12-27T04:00:13.695Z,49.02
2022-12-27T04:01:13.832Z,48.93
2022-12-27T04:02:13.789Z,49.19
2022-12-27T04:03:13.677Z,49.02
2022-12-27T04:04:13.653Z,49.41
2022-12-27T04:05:13.639Z,49.12
2022-12-27T04:06:13.637Z,49.41
2022-12-27T04:07:13.622Z,49.02
2022-12-27T04:08:13.619Z,49.51
2022-12-27T04:09:13.612Z,49.22
2022-12-27T04:10:13.614Z,49.22
2022-12-27T04:11:13.623Z,49.12
2022-12-27T04:12:13.587Z,49.51
2022-12-27T04:13:13.586Z,49.60
2022-12-27T04:14:13.589Z,49.41
2022-12-27T04:15:13.657Z,49.31
2022-12-27T04:16:13.605Z,49.60
2022-12-27T04:17:13.560Z,49.60
2022-12-27T04:18:13.558Z,49.60
2022-12-27T04:19:13.557Z,49.51
2022-12-27T04:20:13.565Z,49.51
2022-12-27T04:21:13.543Z,49.51
2022-12-27T04:22:13.539Z,49.41
2022-12-27T04:23:13.540Z,49.51
2022-12-27T04:24:13.523Z,49.51
2022-12-27T04:25:13.555Z,49.41
2022-12-27T04:26:13.512Z,49.41
2022-12-27T04:27:13.523Z,49.31
2022-12-27T04:28:13.534Z,49.51
2022-12-27T04:29:13.503Z,49.60
2022-12-27T04:30:13.489Z,49.31
2022-12-27T04:31:13.555Z,49.60
2022-12-27T04:32:13.480Z,49.69
2022-12-27T04:33:13.495Z,49.69
2022-12-27T04:34:13.476Z,49.69
2022-12-27T04:35:13.463Z,49.69
2022-12-27T04:36:13.464Z,49.31
2022-12-27T04:37:13.465Z,49.51
2022-12-27T04:38:13.455Z,49.51
2022-12-27T04:39:13.450Z,49.60
2022-12-27T04:40:13.457Z,49.41
2022-12-27T04:41:13.441Z,49.41
2022-12-27T04:42:13.436Z,49.69
2022-12-27T04:43:13.423Z,49.72
2022-12-27T04:44:13.425Z,49.51
2022-12-27T04:45:15.557Z,49.60
2022-12-27T04:46:13.448Z,49.31
2022-12-27T04:47:13.417Z,49.15
2022-12-27T04:48:13.404Z,49.31
2022-12-27T04:49:13.411Z,49.05
2022-12-27T04:50:13.417Z,49.22
2022-12-27T04:51:13.392Z,49.31
2022-12-27T04:52:13.391Z,49.22
2022-12-27T04:53:13.386Z,49.43
2022-12-27T04:54:13.388Z,49.24
2022-12-27T04:55:13.369Z,49.24
2022-12-27T04:56:13.390Z,49.53
2022-12-27T04:57:13.362Z,49.43
2022-12-27T04:58:13.351Z,49.33
2022-12-27T04:59:13.347Z,49.05
2022-12-27T05:00:13.341Z,49.15
2022-12-27T05:01:14.398Z,49.15
2022-12-27T05:02:13.497Z,49.15
2022-12-27T05:03:13.566Z,49.53
2022-12-27T05:04:13.337Z,49.33
2022-12-27T05:05:13.325Z,49.43
2022-12-27T05:06:13.315Z,49.05
2022-12-27T05:07:13.332Z,49.15
2022-12-27T05:08:13.310Z,49.43
2022-12-27T05:09:17.352Z,48.95
2022-12-27T05:10:13.306Z,49.15
2022-12-27T05:11:13.295Z,49.15
2022-12-27T05:12:13.293Z,49.24
2022-12-27T05:13:13.297Z,48.95
2022-12-27T05:14:13.275Z,49.33
2022-12-27T05:15:13.348Z,49.33
2022-12-27T05:16:13.328Z,49.24
2022-12-27T05:17:13.263Z,49.05
2022-12-27T05:18:13.258Z,49.05
2022-12-27T05:19:13.288Z,49.05
2022-12-27T05:20:13.249Z,49.15
2022-12-27T05:21:13.270Z,48.85
2022-12-27T05:22:13.238Z,48.85
2022-12-27T05:23:13.263Z,48.85
2022-12-27T05:24:13.231Z,49.05
2022-12-27T05:25:13.236Z,49.05
2022-12-27T05:26:13.226Z,49.05
2022-12-27T05:27:13.220Z,49.24
2022-12-27T05:28:13.219Z,48.95
2022-12-27T05:29:13.231Z,49.05
2022-12-27T05:30:13.208Z,48.76
2022-12-27T05:31:13.211Z,48.76
2022-12-27T05:32:13.915Z,49.05
2022-12-27T05:33:13.184Z,49.05
2022-12-27T05:34:13.216Z,48.85
2022-12-27T05:35:13.199Z,49.15
2022-12-27T05:36:13.207Z,48.66
2022-12-27T05:37:13.165Z,48.66
2022-12-27T05:38:13.195Z,49.05
2022-12-27T05:39:13.248Z,48.95
2022-12-27T05:40:13.171Z,48.95
2022-12-27T05:41:13.156Z,48.66
2022-12-27T05:42:13.153Z,49.15
2022-12-27T05:43:13.141Z,48.85
2022-12-27T05:44:13.133Z,49.05
2022-12-27T05:45:13.132Z,48.95
2022-12-27T05:46:13.199Z,48.85
2022-12-27T05:47:13.116Z,48.85
2022-12-27T05:48:13.122Z,48.85
2022-12-27T05:49:13.117Z,48.66
2022-12-27T05:50:13.109Z,48.66
2022-12-27T05:51:13.117Z,48.66
2022-12-27T05:52:13.097Z,48.76
2022-12-27T05:53:13.095Z,48.76
2022-12-27T05:54:13.091Z,48.66
2022-12-27T05:55:13.094Z,48.76
2022-12-27T05:56:13.080Z,48.85
2022-12-27T05:57:13.073Z,48.76
2022-12-27T05:58:13.066Z,48.47
2022-12-27T05:59:13.064Z,48.95
2022-12-27T06:00:13.073Z,48.85
2022-12-27T06:01:13.075Z,48.85
2022-12-27T06:02:13.271Z,48.85
2022-12-27T06:03:13.215Z,48.66
2022-12-27T06:04:13.059Z,48.85
2022-12-27T06:05:13.047Z,48.66
2022-12-27T06:06:13.034Z,48.85
2022-12-27T06:07:13.041Z,48.76
2022-12-27T06:08:13.026Z,48.57
2022-12-27T06:09:13.027Z,48.85
2022-12-27T06:10:13.016Z,48.66
2022-12-27T06:11:13.009Z,48.69
2022-12-27T06:12:13.003Z,48.85
2022-12-27T06:13:12.994Z,48.47
2022-12-27T06:14:13.007Z,48.38
2022-12-27T06:15:13.019Z,48.76
2022-12-27T06:16:13.225Z,48.76
2022-12-27T06:17:12.985Z,48.57
2022-12-27T06:18:12.981Z,48.66
2022-12-27T06:19:12.981Z,48.57
2022-12-27T06:20:12.963Z,48.38
2022-12-27T06:21:12.978Z,48.66
2022-12-27T06:22:12.953Z,48.57
2022-12-27T06:23:12.979Z,48.66
2022-12-27T06:24:12.943Z,48.66
2022-12-27T06:25:14.531Z,48.76
2022-12-27T06:26:12.950Z,48.57
2022-12-27T06:27:12.941Z,48.57
2022-12-27T06:28:12.927Z,48.57
2022-12-27T06:29:12.928Z,48.76
2022-12-27T06:30:12.933Z,48.57
2022-12-27T06:31:13.030Z,48.66
2022-12-27T06:32:12.930Z,48.57
2022-12-27T06:33:12.901Z,48.57
2022-12-27T06:34:12.898Z,48.47
2022-12-27T06:35:12.924Z,48.38
2022-12-27T06:36:12.885Z,48.38
2022-12-27T06:37:12.890Z,48.47
2022-12-27T06:38:12.882Z,48.66
2022-12-27T06:39:12.880Z,48.47
2022-12-27T06:40:12.873Z,48.57
2022-12-27T06:41:12.910Z,48.47
2022-12-27T06:42:12.877Z,48.57
2022-12-27T06:43:12.856Z,48.47
2022-12-27T06:44:12.861Z,48.66
2022-12-27T06:45:12.883Z,48.59
2022-12-27T06:46:17.273Z,48.57
2022-12-27T06:47:12.836Z,48.47
2022-12-27T06:48:12.831Z,48.57
2022-12-27T06:49:12.825Z,48.38
2022-12-27T06:50:12.837Z,48.38
2022-12-27T06:51:12.827Z,48.57
2022-12-27T06:52:12.812Z,48.38
2022-12-27T06:53:12.808Z,48.59
2022-12-27T06:54:12.847Z,48.66
2022-12-27T06:55:12.820Z,48.57
2022-12-27T06:56:12.819Z,48.57
2022-12-27T06:57:12.807Z,48.38
2022-12-27T06:58:12.802Z,48.57
2022-12-27T06:59:12.787Z,48.57
2022-12-27T07:00:12.777Z,48.47
2022-12-27T07:01:12.926Z,48.38
2022-12-27T07:02:12.991Z,48.47
2022-12-27T07:03:12.866Z,48.59
2022-12-27T07:04:12.765Z,48.57
2022-12-27T07:05:12.753Z,48.66
2022-12-27T07:06:12.751Z,48.57
2022-12-27T07:07:15.796Z,48.57
2022-12-27T07:08:12.735Z,48.57
2022-12-27T07:09:12.734Z,48.59
2022-12-27T07:10:12.729Z,48.47
2022-12-27T07:11:12.776Z,48.49
2022-12-27T07:12:12.744Z,48.47
2022-12-27T07:13:12.725Z,48.57
2022-12-27T07:14:12.713Z,48.47
2022-12-27T07:15:12.703Z,48.59
2022-12-27T07:16:12.809Z,48.59
2022-12-27T07:17:12.708Z,48.38
2022-12-27T07:18:12.690Z,48.47
2022-12-27T07:19:12.709Z,48.38
2022-12-27T07:20:12.698Z,48.38
2022-12-27T07:21:12.697Z,48.40
2022-12-27T07:22:12.672Z,48.38
2022-12-27T07:23:15.782Z,48.38
2022-12-27T07:24:12.664Z,48.38
2022-12-27T07:25:12.689Z,48.47
2022-12-27T07:26:12.672Z,48.57
2022-12-27T07:27:12.656Z,48.28
2022-12-27T07:28:12.641Z,48.47
2022-12-27T07:29:12.655Z,48.49
2022-12-27T07:30:12.658Z,48.30
2022-12-27T07:31:12.654Z,48.40
2022-12-27T07:32:12.628Z,48.40
2022-12-27T07:33:12.619Z,48.18
2022-12-27T07:34:12.624Z,48.47
2022-12-27T07:35:12.624Z,48.40
2022-12-27T07:36:12.636Z,48.28
2022-12-27T07:37:12.613Z,48.49
2022-12-27T07:38:12.596Z,48.40
2022-12-27T07:39:12.613Z,48.49
2022-12-27T07:40:12.594Z,48.30
2022-12-27T07:41:12.596Z,48.30
2022-12-27T07:42:12.587Z,48.40
2022-12-27T07:43:12.584Z,48.49
2022-12-27T07:44:12.582Z,48.49
2022-12-27T07:45:12.570Z,48.40
2022-12-27T07:46:12.708Z,48.49
2022-12-27T07:47:12.585Z,48.49
2022-12-27T07:48:12.556Z,48.59
2022-12-27T07:49:17.628Z,48.59
2022-12-27T07:50:12.553Z,48.59
2022-12-27T07:51:12.534Z,48.40
2022-12-27T07:52:12.544Z,48.59
2022-12-27T07:53:12.527Z,48.59
2022-12-27T07:54:12.522Z,48.40
2022-12-27T07:55:12.533Z,48.40
2022-12-27T07:56:12.531Z,48.11
2022-12-27T07:57:12.515Z,48.21
2022-12-27T07:58:12.508Z,48.30
2022-12-27T07:59:12.528Z,48.40
2022-12-27T08:00:12.496Z,48.21
2022-12-27T08:01:12.655Z,48.30
2022-12-27T08:02:12.623Z,48.40
2022-12-27T08:03:12.495Z,48.30
2022-12-27T08:04:12.486Z,48.21
2022-12-27T08:05:12.474Z,48.11
2022-12-27T08:06:12.490Z,48.30
2022-12-27T08:07:12.498Z,48.30
2022-12-27T08:08:12.474Z,48.21
2022-12-27T08:09:12.464Z,48.21
2022-12-27T08:10:12.483Z,48.30
2022-12-27T08:11:12.448Z,48.30
2022-12-27T08:12:12.463Z,48.30
2022-12-27T08:13:12.437Z,48.30
2022-12-27T08:14:12.430Z,48.11
2022-12-27T08:15:12.440Z,48.40
2022-12-27T08:16:12.444Z,48.40
2022-12-27T08:17:12.438Z,48.40
2022-12-27T08:18:12.435Z,48.40
2022-12-27T08:19:12.420Z,48.40
2022-12-27T08:20:12.426Z,48.30
2022-12-27T08:21:12.404Z,48.40
2022-12-27T08:22:12.429Z,48.30
2022-12-27T08:23:12.387Z,48.21
2022-12-27T08:24:12.386Z,48.21
2022-12-27T08:25:12.427Z,48.30
2022-12-27T08:26:12.387Z,48.21
2022-12-27T08:27:12.376Z,48.21
2022-12-27T08:28:12.392Z,48.21
2022-12-27T08:29:12.389Z,48.30
2022-12-27T08:30:12.378Z,48.11
2022-12-27T08:31:12.535Z,48.30
2022-12-27T08:32:12.364Z,48.30
2022-12-27T08:33:12.346Z,48.30
2022-12-27T08:34:12.339Z,48.02
2022-12-27T08:35:50.269Z,48.11
2022-12-27T08:37:12.354Z,48.11
2022-12-27T08:38:12.321Z,48.30
2022-12-27T08:39:12.313Z,48.23
2022-12-27T08:40:12.313Z,48.03
2022-12-27T08:41:12.319Z,48.11
2022-12-27T08:42:12.337Z,48.02
2022-12-27T08:43:12.305Z,48.13
2022-12-27T08:44:12.302Z,48.13
2022-12-27T08:45:12.294Z,48.13
2022-12-27T08:46:12.345Z,48.13
2022-12-27T08:47:12.335Z,48.13
2022-12-27T08:48:12.350Z,48.13
2022-12-27T08:49:12.271Z,48.23
2022-12-27T08:50:12.269Z,47.94
2022-12-27T08:51:15.539Z,48.13
2022-12-27T08:52:12.256Z,47.94
2022-12-27T08:53:12.262Z,47.94
2022-12-27T08:54:12.247Z,48.03
2022-12-27T08:55:12.260Z,48.03
2022-12-27T08:56:12.239Z,47.94
2022-12-27T08:57:12.238Z,48.03
2022-12-27T08:58:16.403Z,48.03
2022-12-27T08:59:12.226Z,48.13
2022-12-27T09:00:12.271Z,48.03
2022-12-27T09:01:12.354Z,48.13
2022-12-27T09:02:12.383Z,47.94
2022-12-27T09:03:12.360Z,47.94
2022-12-27T09:04:12.207Z,48.03
2022-12-27T09:05:12.251Z,47.85
2022-12-27T09:06:12.207Z,47.87
2022-12-27T09:07:12.216Z,47.67
2022-12-27T09:08:12.200Z,47.77
2022-12-27T09:09:12.186Z,47.97
2022-12-27T09:10:12.187Z,47.87
2022-12-27T09:11:12.189Z,47.97
2022-12-27T09:12:12.182Z,47.97
2022-12-27T09:13:12.226Z,47.87
2022-12-27T09:14:12.177Z,47.77
2022-12-27T09:15:12.178Z,47.77
2022-12-27T09:16:12.244Z,47.97
2022-12-27T09:17:12.185Z,47.87
2022-12-27T09:18:12.155Z,47.77
2022-12-27T09:19:12.207Z,47.77
2022-12-27T09:20:12.173Z,47.97
2022-12-27T09:21:12.160Z,47.87
2022-12-27T09:22:12.170Z,47.77
2022-12-27T09:23:12.134Z,47.87
2022-12-27T09:24:12.141Z,47.87
2022-12-27T09:25:12.165Z,47.87
2022-12-27T09:26:12.138Z,47.97
2022-12-27T09:27:12.131Z,47.77
2022-12-27T09:28:12.118Z,47.87
2022-12-27T09:29:12.113Z,47.87
2022-12-27T09:30:12.123Z,47.87
2022-12-27T09:31:12.120Z,47.77
2022-12-27T09:32:12.112Z,47.77
2022-12-27T09:33:12.095Z,47.97
2022-12-27T09:34:12.091Z,47.77
2022-12-27T09:35:12.123Z,47.67
2022-12-27T09:36:12.087Z,47.77
2022-12-27T09:37:12.107Z,47.77
2022-12-27T09:38:12.092Z,47.87
2022-12-27T09:39:12.075Z,47.77
2022-12-27T09:40:12.070Z,47.87
2022-12-27T09:41:12.066Z,47.87
2022-12-27T09:43:20.967Z,47.77
2022-12-27T09:44:12.059Z,47.77
2022-12-27T09:45:12.051Z,47.87
2022-12-27T09:46:12.119Z,47.77
2022-12-27T09:47:12.076Z,47.77
2022-12-27T09:48:12.038Z,47.87
2022-12-27T09:49:12.048Z,47.89
2022-12-27T09:50:12.050Z,47.77
2022-12-27T09:51:12.034Z,47.70
2022-12-27T09:52:12.048Z,47.77
2022-12-27T09:53:12.025Z,47.80
2022-12-27T09:54:12.033Z,47.80
2022-12-27T09:55:12.025Z,47.70
2022-12-27T09:56:12.009Z,47.67
2022-12-27T09:57:20.478Z,47.80
2022-12-27T09:58:12.000Z,47.70
2022-12-27T09:59:12.015Z,47.70
2022-12-27T10:00:11.996Z,47.80
2022-12-27T10:01:12.141Z,47.80
2022-12-27T10:02:12.102Z,47.70
2022-12-27T10:13:24.421Z,47.22
2022-12-27T10:14:24.377Z,47.31
2022-12-27T10:15:24.364Z,47.31
2022-12-27T10:16:24.376Z,47.41
2022-12-27T10:17:24.354Z,47.51
2022-12-27T10:18:24.361Z,47.41
2022-12-27T10:19:24.334Z,47.51
2022-12-27T10:20:24.335Z,47.31
2022-12-27T10:21:24.331Z,47.51
2022-12-27T10:22:24.326Z,47.41
2022-12-27T10:23:24.346Z,47.51
2022-12-27T10:24:24.316Z,47.31
2022-12-27T10:25:24.310Z,47.31
2022-12-27T10:26:24.324Z,47.53
2022-12-27T10:27:24.307Z,47.53
2022-12-27T10:28:24.319Z,47.53
2022-12-27T10:29:24.327Z,47.53
2022-12-27T10:30:24.308Z,47.63
2022-12-27T10:31:24.345Z,47.44
2022-12-27T10:32:24.287Z,47.53
2022-12-27T10:33:24.283Z,47.63
2022-12-27T10:34:24.331Z,47.63
2022-12-27T10:35:24.322Z,47.34
2022-12-27T10:36:24.280Z,47.53
2022-12-27T10:37:24.271Z,47.53
2022-12-27T10:38:24.264Z,47.53
2022-12-27T10:39:24.262Z,47.53
2022-12-27T10:40:24.261Z,47.63
2022-12-27T10:41:24.304Z,47.53
2022-12-27T10:42:24.259Z,47.53
2022-12-27T10:43:24.270Z,47.44
2022-12-27T10:44:24.277Z,47.65
2022-12-27T10:45:24.272Z,47.53
2022-12-27T10:46:28.930Z,47.36
2022-12-27T10:47:24.240Z,47.27
2022-12-27T10:48:24.242Z,47.45
2022-12-27T10:49:24.310Z,47.55
2022-12-27T10:50:24.237Z,47.45
2022-12-27T10:51:24.241Z,47.27
2022-12-27T10:52:24.251Z,47.36
2022-12-27T10:53:24.221Z,47.55
2022-12-27T10:54:24.219Z,47.45
2022-12-27T10:55:24.225Z,47.36
2022-12-27T10:56:24.220Z,47.45
2022-12-27T10:57:24.214Z,47.45
2022-12-27T10:58:24.208Z,47.36
2022-12-27T10:59:24.204Z,47.55
2022-12-27T11:00:24.393Z,47.36
2022-12-27T11:01:24.452Z,47.27
2022-12-27T11:02:24.374Z,47.36
2022-12-27T11:03:24.199Z,47.36
2022-12-27T11:04:24.202Z,47.36
2022-12-27T11:05:24.194Z,47.36
2022-12-27T11:06:24.181Z,47.45
2022-12-27T11:07:24.179Z,47.27
2022-12-27T11:08:24.180Z,47.07
2022-12-27T11:09:24.194Z,47.45
2022-12-27T11:10:24.184Z,47.07
2022-12-27T11:11:24.208Z,47.07
2022-12-27T11:12:24.178Z,47.17
2022-12-27T11:13:24.188Z,47.17
2022-12-27T11:14:24.159Z,47.27
2022-12-27T11:15:24.189Z,47.07
2022-12-27T11:16:24.185Z,47.07
2022-12-27T11:17:24.206Z,47.07
2022-12-27T11:18:24.151Z,47.00
2022-12-27T11:19:24.150Z,47.09
2022-12-27T11:20:24.149Z,47.09
2022-12-27T11:21:27.802Z,47.00
2022-12-27T11:22:24.155Z,47.09
2022-12-27T11:23:24.151Z,47.19
2022-12-27T11:24:24.141Z,46.90
2022-12-27T11:25:24.129Z,46.90
2022-12-27T11:26:24.138Z,47.19
2022-12-27T11:27:24.127Z,47.00
2022-12-27T11:28:24.131Z,47.00
2022-12-27T11:29:24.121Z,46.81
2022-12-27T11:30:24.118Z,46.81
2022-12-27T11:31:24.152Z,46.83
2022-12-27T11:32:24.123Z,46.83
2022-12-27T11:33:25.236Z,46.83
2022-12-27T11:34:24.109Z,46.92
2022-12-27T11:35:24.160Z,46.64
2022-12-27T11:36:24.112Z,46.73
2022-12-27T11:37:24.111Z,46.83
2022-12-27T11:38:24.138Z,46.64
2022-12-27T11:39:24.105Z,46.73
2022-12-27T11:40:24.122Z,46.92
2022-12-27T11:41:27.864Z,46.83
2022-12-27T11:42:24.099Z,46.64
2022-12-27T11:43:24.135Z,46.64
2022-12-27T11:44:24.109Z,46.64
2022-12-27T11:45:24.099Z,46.73
2022-12-27T11:46:24.142Z,46.34
2022-12-27T11:47:24.147Z,46.25
2022-12-27T11:48:24.086Z,46.54
2022-12-27T11:49:24.127Z,46.83
2022-12-27T11:50:24.078Z,46.83
2022-12-27T11:51:24.087Z,46.44
2022-12-27T11:52:24.077Z,46.64
2022-12-27T11:53:24.090Z,46.64
2022-12-27T11:54:24.082Z,46.54
2022-12-27T11:55:24.070Z,46.44
2022-12-27T11:56:24.065Z,46.54
2022-12-27T11:57:24.064Z,46.44
2022-12-27T11:58:24.073Z,46.34
2022-12-27T11:59:24.076Z,46.54
2022-12-27T12:00:24.065Z,46.44
2022-12-27T12:01:24.082Z,46.06
2022-12-27T12:02:24.089Z,46.25
2022-12-27T12:03:24.128Z,46.34
2022-12-27T12:04:24.060Z,45.96
2022-12-27T12:05:24.066Z,46.54
2022-12-27T12:06:24.056Z,46.44
2022-12-27T12:07:24.051Z,46.75
2022-12-27T12:08:24.065Z,46.73
2022-12-27T12:09:24.047Z,46.25
2022-12-27T12:10:24.046Z,46.47
2022-12-27T12:11:24.046Z,46.73
2022-12-27T12:12:24.042Z,46.73
2022-12-27T12:13:24.102Z,46.15
2022-12-27T12:14:24.053Z,46.25
2022-12-27T12:15:24.033Z,46.56
2022-12-27T12:16:24.083Z,46.27
2022-12-27T12:17:24.033Z,46.27
2022-12-27T12:18:24.059Z,46.27
2022-12-27T12:19:24.031Z,46.37
2022-12-27T12:20:24.030Z,46.47
2022-12-27T12:21:24.030Z,46.47
2022-12-27T12:22:24.019Z,46.37
2022-12-27T12:23:24.020Z,46.56
2022-12-27T12:24:24.033Z,46.56
2022-12-27T12:25:24.009Z,45.81
2022-12-27T12:26:24.021Z,45.91
2022-12-27T12:27:24.005Z,46.30
2022-12-27T12:28:56.476Z,45.72
2022-12-27T12:29:24.008Z,45.62
2022-12-27T12:30:27.418Z,46.10
2022-12-27T12:31:24.041Z,45.91
2022-12-27T12:32:24.004Z,45.83
2022-12-27T12:33:23.995Z,45.83
2022-12-27T12:34:23.999Z,45.83
2022-12-27T12:35:23.996Z,45.74
2022-12-27T12:36:24.010Z,45.74
2022-12-27T12:37:24.029Z,45.54
2022-12-27T12:38:23.990Z,45.64
2022-12-27T12:39:24.018Z,45.64
2022-12-27T12:40:23.999Z,45.74
2022-12-27T12:41:23.997Z,45.64
2022-12-27T12:42:23.991Z,45.54
2022-12-27T12:43:23.980Z,45.35
2022-12-27T12:44:23.984Z,45.83
2022-12-27T12:45:24.004Z,45.74
2022-12-27T12:46:24.063Z,45.35
2022-12-27T12:47:23.995Z,45.74
2022-12-27T12:48:23.986Z,45.83
2022-12-27T12:49:23.976Z,45.83
2022-12-27T12:50:23.978Z,45.91
2022-12-27T12:51:23.973Z,45.81
2022-12-27T12:52:23.970Z,45.33
2022-12-27T12:53:23.998Z,45.93
2022-12-27T12:54:23.974Z,45.72
2022-12-27T12:55:23.979Z,45.72
2022-12-27T12:56:23.968Z,45.33
2022-12-27T12:57:23.970Z,45.91
2022-12-27T12:58:23.980Z,45.23
2022-12-27T12:59:23.969Z,45.33
2022-12-27T13:00:24.450Z,46.10
2022-12-27T13:01:24.049Z,45.81
2022-12-27T13:02:24.277Z,45.91
2022-12-27T13:03:23.981Z,45.89
2022-12-27T13:04:23.974Z,46.10
2022-12-27T13:05:23.959Z,46.10
2022-12-27T13:06:23.951Z,45.98
2022-12-27T13:07:23.948Z,45.59
2022-12-27T13:08:23.944Z,46.47
2022-12-27T13:09:23.987Z,46.37
2022-12-27T13:10:23.943Z,46.56
2022-12-27T13:11:23.950Z,45.69
2022-12-27T13:12:23.958Z,45.69
2022-12-27T13:13:23.933Z,45.79
2022-12-27T13:14:23.951Z,45.79
2022-12-27T13:15:23.940Z,45.79
2022-12-27T13:16:23.953Z,45.67
2022-12-27T13:17:23.942Z,45.79
2022-12-27T13:18:30.114Z,46.44
2022-12-27T13:19:23.922Z,45.69
2022-12-27T13:20:23.920Z,46.56
2022-12-27T13:21:23.918Z,45.59
2022-12-27T13:22:23.929Z,45.67
2022-12-27T13:23:23.947Z,46.54
2022-12-27T13:24:29.525Z,45.86
2022-12-27T13:25:23.950Z,45.76
2022-12-27T13:26:23.927Z,45.67
2022-12-27T13:27:23.915Z,45.86
2022-12-27T13:28:23.905Z,46.25
2022-12-27T13:29:23.899Z,45.76
2022-12-27T13:30:24.087Z,45.76
2022-12-27T13:31:23.899Z,45.86
2022-12-27T13:32:23.893Z,45.67
2022-12-27T13:33:23.902Z,46.64
2022-12-27T13:34:23.890Z,45.57
2022-12-27T13:35:23.898Z,45.67
2022-12-27T13:36:23.921Z,45.76
2022-12-27T13:37:23.891Z,45.57
2022-12-27T13:38:23.882Z,45.67
2022-12-27T13:39:23.883Z,45.76
2022-12-27T13:40:23.884Z,46.25
2022-12-27T13:41:30.158Z,45.67
2022-12-27T13:42:23.888Z,45.67
2022-12-27T13:43:23.885Z,45.67
2022-12-27T13:44:23.872Z,45.67
2022-12-27T13:45:23.872Z,45.76
2022-12-27T13:46:23.927Z,45.76
2022-12-27T13:47:23.895Z,45.67
2022-12-27T13:48:23.871Z,45.76
2022-12-27T13:49:23.853Z,45.76
2022-12-27T13:50:23.866Z,45.86
2022-12-27T13:51:23.871Z,45.86
2022-12-27T13:52:23.855Z,46.03
2022-12-27T13:53:23.844Z,46.03
2022-12-27T13:54:23.846Z,45.75
2022-12-27T13:55:23.837Z,45.75
2022-12-27T13:56:54.413Z,46.61
2022-12-27T13:57:23.853Z,46.23
2022-12-27T13:58:23.837Z,46.33
2022-12-27T13:59:23.849Z,46.33
2022-12-27T14:00:23.841Z,46.42
2022-12-27T14:01:23.959Z,46.42
2022-12-27T14:02:24.024Z,46.33
2022-12-27T14:03:23.883Z,46.33
2022-12-27T14:04:23.837Z,46.42
2022-12-27T14:05:23.814Z,46.03
2022-12-27T14:06:23.813Z,46.42
2022-12-27T14:07:23.807Z,46.33
2022-12-27T14:08:23.854Z,46.33
2022-12-27T14:09:23.799Z,46.23
2022-12-27T14:10:23.798Z,46.30
2022-12-27T14:11:23.812Z,46.30
2022-12-27T14:12:23.792Z,46.30
2022-12-27T14:13:23.844Z,46.30
2022-12-27T14:14:23.786Z,46.40
2022-12-27T14:15:23.856Z,46.49
2022-12-27T14:16:23.783Z,46.11
2022-12-27T14:17:23.774Z,46.40
2022-12-27T14:18:24.519Z,46.49
2022-12-27T14:19:23.777Z,46.30
2022-12-27T14:20:23.777Z,46.40
2022-12-27T14:21:23.768Z,46.49
2022-12-27T14:22:23.762Z,46.49
2022-12-27T14:23:23.757Z,46.11
2022-12-27T14:24:23.758Z,46.49
2022-12-27T14:25:23.774Z,46.59
2022-12-27T14:26:23.776Z,46.20
2022-12-27T14:27:23.748Z,46.40
2022-12-27T14:28:23.743Z,46.40
2022-12-27T14:29:23.770Z,46.69
2022-12-27T14:30:23.757Z,46.20
2022-12-27T14:31:23.772Z,46.88
2022-12-27T14:32:23.725Z,46.30
2022-12-27T14:33:23.731Z,46.49
2022-12-27T14:34:23.728Z,46.20
2022-12-27T14:35:23.750Z,46.49
2022-12-27T14:36:23.724Z,46.20
2022-12-27T14:37:23.727Z,46.18
2022-12-27T14:38:23.732Z,46.28
2022-12-27T14:39:23.713Z,46.47
2022-12-27T14:40:23.729Z,46.37
2022-12-27T14:41:23.703Z,46.37
2022-12-27T14:42:23.721Z,46.28
2022-12-27T14:43:23.696Z,46.47
2022-12-27T14:44:23.697Z,46.37
2022-12-27T14:45:23.704Z,46.47
2022-12-27T14:46:23.741Z,46.56
2022-12-27T14:47:23.695Z,46.28
2022-12-27T14:48:23.675Z,46.66
2022-12-27T14:49:23.680Z,46.47
2022-12-27T14:50:23.672Z,46.47
2022-12-27T14:51:58.840Z,46.66
2022-12-27T14:52:23.673Z,46.56
2022-12-27T14:53:23.669Z,46.47
2022-12-27T14:54:23.651Z,46.56
2022-12-27T14:55:23.657Z,46.56
2022-12-27T14:56:23.665Z,46.56
2022-12-27T14:57:26.219Z,47.05
2022-12-27T14:58:23.650Z,46.86
2022-12-27T14:59:23.656Z,46.55
2022-12-27T15:00:23.638Z,46.55
2022-12-27T15:01:23.771Z,46.25
2022-12-27T15:02:23.813Z,46.93
2022-12-27T15:03:28.329Z,46.83
2022-12-27T15:04:23.632Z,46.73
2022-12-27T15:05:23.620Z,46.64
2022-12-27T15:06:23.627Z,46.73
2022-12-27T15:07:23.613Z,46.73
2022-12-27T15:08:23.607Z,46.64
2022-12-27T15:09:23.616Z,46.55
2022-12-27T15:10:26.044Z,46.55
2022-12-27T15:11:23.608Z,46.64
2022-12-27T15:12:23.595Z,46.64
2022-12-27T15:13:23.586Z,46.55
2022-12-27T15:14:23.593Z,46.55
2022-12-27T15:15:23.587Z,46.73
2022-12-27T15:16:23.610Z,46.64
2022-12-27T15:17:23.598Z,46.64
2022-12-27T15:18:23.611Z,46.64
2022-12-27T15:19:23.594Z,46.93
2022-12-27T15:20:23.566Z,46.83
2022-12-27T15:21:23.555Z,46.64
2022-12-27T15:22:23.566Z,46.73
2022-12-27T15:23:23.554Z,46.91
2022-12-27T15:24:23.547Z,46.64
2022-12-27T15:25:23.559Z,46.62
2022-12-27T15:26:23.558Z,46.62
2022-12-27T15:27:23.541Z,46.64
2022-12-27T15:28:23.532Z,46.52
2022-12-27T15:29:23.527Z,46.52
2022-12-27T15:30:23.538Z,46.62
2022-12-27T15:31:23.550Z,46.62
2022-12-27T15:32:23.540Z,46.52
2022-12-27T15:33:23.633Z,46.62
2022-12-27T15:34:23.503Z,47.00
2022-12-27T15:35:23.505Z,47.00
2022-12-27T15:36:23.525Z,47.00
2022-12-27T15:37:23.493Z,47.10
2022-12-27T15:38:23.500Z,47.10
2022-12-27T15:39:23.502Z,46.91
2022-12-27T15:40:23.486Z,47.00
2022-12-27T15:41:23.495Z,46.91
2022-12-27T15:42:23.474Z,47.10
2022-12-27T15:43:23.476Z,47.00
2022-12-27T15:44:23.473Z,46.81
2022-12-27T15:45:23.464Z,46.91
2022-12-27T15:46:23.593Z,47.00
2022-12-27T15:47:23.460Z,46.91
2022-12-27T15:48:23.467Z,46.91
2022-12-27T15:49:23.462Z,47.00
2022-12-27T15:50:23.449Z,47.00
2022-12-27T15:51:23.437Z,47.00
2022-12-27T15:52:23.439Z,47.00
2022-12-27T15:53:23.436Z,47.00
2022-12-27T15:54:23.441Z,47.10
2022-12-27T15:55:23.428Z,47.00
2022-12-27T15:56:23.432Z,47.10
2022-12-27T15:57:23.424Z,47.00
2022-12-27T15:58:23.437Z,47.10
2022-12-27T15:59:23.416Z,47.00
2022-12-27T16:00:23.408Z,47.00
2022-12-27T16:12:30.872Z,46.88
2022-12-27T16:13:34.499Z,46.88
2022-12-27T16:14:30.822Z,46.59
2022-12-27T16:15:30.820Z,46.59
2022-12-27T16:16:30.847Z,46.59
2022-12-27T16:17:30.809Z,46.98
2022-12-27T16:18:30.818Z,47.08
2022-12-27T16:19:34.136Z,46.98
2022-12-27T16:20:30.783Z,46.88
2022-12-27T16:21:30.779Z,46.98
2022-12-27T16:22:30.778Z,46.98
2022-12-27T16:23:30.777Z,46.98
2022-12-27T16:24:30.767Z,47.08
2022-12-27T16:25:31.645Z,46.98
2022-12-27T16:26:30.785Z,47.08
2022-12-27T16:27:30.756Z,47.17
2022-12-27T16:28:30.769Z,46.88
2022-12-27T16:29:30.752Z,47.17
2022-12-27T16:30:30.733Z,46.98
2022-12-27T16:31:30.780Z,46.98
2022-12-27T16:32:30.729Z,46.98
2022-12-27T16:33:30.743Z,47.36
2022-12-27T16:34:30.727Z,47.36
2022-12-27T16:35:30.719Z,47.27
2022-12-27T16:36:30.711Z,47.36
2022-12-27T16:37:30.723Z,47.36
2022-12-27T16:38:30.706Z,47.08
2022-12-27T16:39:30.704Z,47.17
2022-12-27T16:40:30.699Z,47.36
2022-12-27T16:41:30.697Z,47.27
2022-12-27T16:42:30.695Z,47.27
2022-12-27T16:43:30.679Z,47.17
2022-12-27T16:44:34.625Z,47.46
2022-12-27T16:45:30.676Z,47.27
2022-12-27T16:46:30.687Z,47.36
2022-12-27T16:47:30.675Z,47.27
2022-12-27T16:48:30.655Z,47.17
2022-12-27T16:49:30.651Z,47.17
2022-12-27T16:50:32.615Z,47.27
2022-12-27T16:51:30.646Z,47.46
2022-12-27T16:52:30.636Z,47.27
2022-12-27T16:53:30.637Z,47.46
2022-12-27T16:54:30.628Z,47.46
2022-12-27T16:55:30.623Z,47.27
2022-12-27T16:56:30.620Z,47.46
2022-12-27T16:57:30.627Z,47.36
2022-12-27T16:58:30.627Z,47.08
2022-12-27T16:59:30.609Z,47.27
2022-12-27T17:00:30.647Z,47.27
2022-12-27T17:01:30.802Z,47.27
2022-12-27T17:02:30.772Z,47.27
2022-12-27T17:03:30.590Z,47.36
2022-12-27T17:04:30.585Z,47.36
2022-12-27T17:05:30.604Z,47.36
2022-12-27T17:06:32.500Z,47.36
2022-12-27T17:07:30.593Z,47.27
2022-12-27T17:08:30.572Z,47.27
2022-12-27T17:09:33.904Z,47.56
2022-12-27T17:10:30.557Z,47.46
2022-12-27T17:11:30.561Z,47.36
2022-12-27T17:12:30.549Z,47.27
2022-12-27T17:13:30.548Z,47.46
2022-12-27T17:14:30.542Z,47.36